Time;durP1;ratioP1;P1;durP2;ratioP2;P2;SDS_P1;SDS_P2;PMS_P1;PMS_P2;Temp;Humidity;BMP_temperature;BMP_pressure;BME280_temperature;BME280_humidity;BME280_pressure;Samples;Min_cycle;Max_cycle;Signal;HPM_P1;HPM_P2
2022/05/03 00:01:04;;;;;;;;;;;;;;;17.39;48.15;100632.94;5003091;27;97974;-67
2022/05/03 00:03:39;;;;;;;;;;;;;;;17.36;48.27;100642.53;4999340;27;97930;-68
2022/05/03 00:06:31;;;;;;;;;;;;;;;17.33;48.18;100635.00;5000531;27;98942;-68
2022/05/03 00:09:05;;;;;;;;;;;;;;;17.30;48.30;100635.63;4981305;27;127513;-68
2022/05/03 00:11:45;;;;;;;;;;;;;;;17.27;48.33;100628.06;4993349;27;97879;-67
2022/05/03 00:14:29;;;;;;;;;;;;;;;17.24;48.40;100627.84;4996581;27;100137;-67
2022/05/03 00:16:55;;;;;;;;;;;;;;;17.22;48.32;100624.66;5000907;27;126008;-67
2022/05/03 00:19:21;;;;;;;;;;;;;;;17.19;48.41;100628.78;5001067;27;128011;-68
2022/05/03 00:21:47;;;;;;;;;;;;;;;17.17;48.32;100636.44;5001182;27;126638;-67
2022/05/03 00:24:13;;;;;;;;;;;;;;;17.13;48.41;100628.09;4997035;27;118899;-67
2022/05/03 00:26:38;;;;;;;;;;;;;;;17.11;48.54;100632.25;4999323;27;127892;-68
2022/05/03 00:29:04;;;;;;;;;;;;;;;17.08;48.57;100630.94;5000961;27;127081;-68
2022/05/03 00:31:30;;;;;;;;;;;;;;;17.06;48.52;100629.63;5002211;27;98029;-67
2022/05/03 00:33:57;;;;;;;;;;;;;;;17.03;48.48;100624.81;4987361;27;106626;-68
2022/05/03 00:36:23;;;;;;;;;;;;;;;17.00;48.55;100628.94;4982197;27;99026;-68
2022/05/03 00:38:49;;;;;;;;;;;;;;;16.97;48.67;100632.25;4981211;27;99274;-67
2022/05/03 00:41:20;;;;;;;;;;;;;;;16.96;48.78;100636.09;4981650;28;123657;-67
2022/05/03 00:43:47;;;;;;;;;;;;;;;16.95;48.67;100628.25;4992910;27;114795;-67
2022/05/03 00:46:15;;;;;;;;;;;;;;;16.91;48.60;100634.28;5001832;27;98347;-68
2022/05/03 00:49:21;;;;;;;;;;;;;;;16.90;48.88;100637.34;4999770;27;98617;-67
2022/05/03 00:52:00;;;;;;;;;;;;;;;16.87;48.72;100637.94;5001157;27;126627;-67
2022/05/03 00:55:00;;;;;;;;;;;;;;;16.85;48.95;100632.78;4997838;27;97874;-67
2022/05/03 00:57:37;;;;;;;;;;;;;;;16.83;48.87;100632.28;4988888;27;100119;-68
2022/05/03 01:00:07;;;;;;;;;;;;;;;16.81;49.08;100622.81;5001057;27;98498;-67
2022/05/03 01:03:13;;;;;;;;;;;;;;;16.79;48.71;100625.06;4998199;27;97937;-68
2022/05/03 01:06:13;;;;;;;;;;;;;;;16.78;48.85;100626.13;4995867;27;112468;-68
2022/05/03 01:09:03;;;;;;;;;;;;;;;16.76;48.78;100623.72;4980957;28;98389;-67
2022/05/03 01:12:00;;;;;;;;;;;;;;;16.74;48.97;100627.84;4981625;27;98167;-67
2022/05/03 01:14:34;;;;;;;;;;;;;;;16.71;49.08;100623.81;4980792;27;97829;-67
2022/05/03 01:17:05;;;;;;;;;;;;;;;16.69;48.91;100626.03;4994192;27;98179;-68
2022/05/03 01:19:52;;;;;;;;;;;;;;;16.67;49.15;100625.53;4998913;27;111522;-67
2022/05/03 01:22:55;;;;;;;;;;;;;;;16.65;49.12;100622.31;4980397;27;124939;-68
2022/05/03 01:26:06;;;;;;;;;;;;;;;16.63;49.18;100619.09;5001002;27;113346;-68
2022/05/03 01:28:47;;;;;;;;;;;;;;;16.60;48.97;100614.25;4963119;27;97897;-67
2022/05/03 01:31:13;;;;;;;;;;;;;;;16.56;49.30;100616.78;4995961;27;98934;-68
2022/05/03 01:33:42;;;;;;;;;;;;;;;16.55;49.39;100612.44;4990316;27;128109;-68
2022/05/03 01:36:09;;;;;;;;;;;;;;;16.52;49.17;100609.53;5001234;27;98208;-68
2022/05/03 01:39:05;;;;;;;;;;;;;;;16.50;49.29;100617.97;5000671;27;102558;-68
2022/05/03 01:42:22;;;;;;;;;;;;;;;16.48;49.20;100612.03;4980327;27;98778;-68
2022/05/03 01:45:04;;;;;;;;;;;;;;;16.44;49.45;100617.28;4956521;28;118775;-68
2022/05/03 01:47:52;;;;;;;;;;;;;;;16.42;49.46;100619.47;4977840;27;97718;-68
2022/05/03 01:50:43;;;;;;;;;;;;;;;16.40;49.15;100626.34;4981824;27;98093;-67
2022/05/03 01:53:16;;;;;;;;;;;;;;;16.36;49.56;100623.44;4988930;27;99477;-68
2022/05/03 01:55:54;;;;;;;;;;;;;;;16.34;49.38;100622.91;5002141;27;98867;-68
2022/05/03 01:58:40;;;;;;;;;;;;;;;16.31;49.25;100626.25;5020194;27;97860;-68
2022/05/03 02:01:28;;;;;;;;;;;;;;;16.29;49.22;100628.47;4999702;27;115698;-68
2022/05/03 02:04:09;;;;;;;;;;;;;;;16.27;49.53;100627.13;4997324;27;98537;-68
2022/05/03 02:06:46;;;;;;;;;;;;;;;16.24;49.55;100628.56;4998458;27;120450;-65
2022/05/03 02:09:12;;;;;;;;;;;;;;;16.22;49.66;100614.44;4998054;27;98209;-67
2022/05/03 02:12:08;;;;;;;;;;;;;;;16.20;49.69;100616.69;4991601;27;118441;-68
2022/05/03 02:14:45;;;;;;;;;;;;;;;16.17;49.42;100618.06;4998140;27;98682;-66
2022/05/03 02:17:36;;;;;;;;;;;;;;;16.15;49.47;100614.88;4981717;27;98685;-66
2022/05/03 02:20:28;;;;;;;;;;;;;;;16.12;49.88;100614.66;4972740;28;98570;-66
2022/05/03 02:23:14;;;;;;;;;;;;;;;16.10;49.53;100623.09;4985625;27;98226;-66
2022/05/03 02:25:53;;;;;;;;;;;;;;;16.07;49.89;100617.44;5002330;27;99385;-67
2022/05/03 02:28:45;;;;;;;;;;;;;;;16.05;49.39;100619.69;5002886;27;98989;-68
2022/05/03 02:31:17;;;;;;;;;;;;;;;16.02;49.88;100617.56;5002878;27;127220;-68
2022/05/03 02:33:45;;;;;;;;;;;;;;;15.99;49.79;100618.94;5002482;27;97980;-68
2022/05/03 02:36:15;;;;;;;;;;;;;;;15.98;49.96;100621.97;5001767;27;99124;-68
2022/05/03 02:39:03;;;;;;;;;;;;;;;15.95;49.67;100615.22;5001422;27;98711;-68
2022/05/03 02:41:34;;;;;;;;;;;;;;;15.92;49.64;100615.84;5003748;27;98667;-68
2022/05/03 02:44:01;;;;;;;;;;;;;;;15.90;49.63;100615.31;4988518;27;111445;-68
2022/05/03 02:46:34;;;;;;;;;;;;;;;15.88;49.94;100626.50;4984002;27;98891;-67
2022/05/03 02:49:04;;;;;;;;;;;;;;;15.85;49.68;100621.66;4981060;28;119253;-67
2022/05/03 02:51:54;;;;;;;;;;;;;;;15.83;49.69;100621.13;4982789;27;120915;-67
2022/05/03 02:54:33;;;;;;;;;;;;;;;15.81;49.81;100617.91;4982989;27;98023;-67
2022/05/03 02:57:15;;;;;;;;;;;;;;;15.79;49.83;100620.13;5017094;27;98438;-67
2022/05/03 03:03:12;;;;;;;;;;;;;;;15.74;49.69;100616.69;4998534;27;98267;-67
2022/05/03 03:05:41;;;;;;;;;;;;;;;15.71;50.12;100618.09;5002680;27;97964;-67
2022/05/03 03:08:07;;;;;;;;;;;;;;;15.70;50.00;100613.75;4985899;27;99201;-68
2022/05/03 03:10:47;;;;;;;;;;;;;;;15.68;50.05;100610.56;4979957;28;127262;-67
2022/05/03 03:13:24;;;;;;;;;;;;;;;15.66;50.09;100612.75;4987775;27;127542;-68
2022/05/03 03:15:51;;;;;;;;;;;;;;;15.64;50.24;100613.03;5004529;27;97813;-67
2022/05/03 03:18:20;;;;;;;;;;;;;;;15.61;49.86;100620.97;5003085;27;98109;-68
2022/05/03 03:20:46;;;;;;;;;;;;;;;15.59;50.23;100615.00;4989928;27;98816;-67
2022/05/03 03:23:15;;;;;;;;;;;;;;;15.57;49.91;100620.75;4986103;27;97854;-67
2022/05/03 03:25:43;;;;;;;;;;;;;;;15.56;50.37;100618.31;5002443;27;98203;-69
2022/05/03 03:28:11;;;;;;;;;;;;;;;15.55;49.89;100608.56;5000691;27;98303;-68
2022/05/03 03:30:38;;;;;;;;;;;;;;;15.52;50.35;100607.22;5003241;27;99269;-68
2022/05/03 03:33:04;;;;;;;;;;;;;;;15.50;50.28;100605.94;4996312;27;126749;-67
2022/05/03 03:35:31;;;;;;;;;;;;;;;15.49;50.00;100596.97;4980598;28;112542;-68
2022/05/03 03:37:58;;;;;;;;;;;;;;;15.47;49.98;100591.81;4978213;27;127522;-68
2022/05/03 03:40:25;;;;;;;;;;;;;;;15.47;49.99;100596.44;4963693;28;98052;-68
2022/05/03 03:42:50;;;;;;;;;;;;;;;15.44;50.12;100589.72;4964756;27;112436;-68
2022/05/03 03:45:17;;;;;;;;;;;;;;;15.43;50.08;100593.50;5001728;27;117510;-68
2022/05/03 03:47:44;;;;;;;;;;;;;;;15.43;50.08;100593.50;5001755;27;121465;-68
2022/05/03 03:50:10;;;;;;;;;;;;;;;15.42;49.85;100593.81;5002923;27;99065;-68
2022/05/03 03:52:40;;;;;;;;;;;;;;;15.41;50.12;100593.03;5000340;27;97911;-67
2022/05/03 03:55:08;;;;;;;;;;;;;;;15.41;50.08;100592.22;5002453;27;97767;-67
2022/05/03 03:57:35;;;;;;;;;;;;;;;15.40;49.96;100587.88;5012874;27;99582;-68
2022/05/03 04:00:02;;;;;;;;;;;;;;;15.40;50.20;100591.38;5002973;27;98381;-67
2022/05/03 04:02:28;;;;;;;;;;;;;;;15.40;50.49;100593.31;4998349;27;127450;-68
2022/05/03 04:04:54;;;;;;;;;;;;;;;15.40;50.14;100598.72;4999848;27;97958;-68
2022/05/03 04:07:20;;;;;;;;;;;;;;;15.40;50.37;100596.00;5002260;27;126707;-68
2022/05/03 04:09:46;;;;;;;;;;;;;;;15.40;50.25;100598.72;4999161;27;127365;-68
2022/05/03 04:12:12;;;;;;;;;;;;;;;15.41;50.22;100605.81;4989651;27;98098;-68
2022/05/03 04:14:38;;;;;;;;;;;;;;;15.41;50.27;100594.94;4996209;27;98037;-68
2022/05/03 04:17:04;;;;;;;;;;;;;;;15.44;50.41;100605.19;4999390;27;128189;-68
2022/05/03 04:19:30;;;;;;;;;;;;;;;15.44;50.52;100592.44;4998689;27;100881;-68
2022/05/03 04:22:12;;;;;;;;;;;;;;;15.47;50.46;100599.97;4982328;28;98479;-68
2022/05/03 04:24:43;;;;;;;;;;;;;;;15.51;50.20;100592.03;4996056;27;98228;-68
2022/05/03 04:27:09;;;;;;;;;;;;;;;15.54;50.53;100588.72;5000274;27;124698;-68
2022/05/03 04:29:34;;;;;;;;;;;;;;;15.57;50.51;100592.78;4988929;27;127992;-68
2022/05/03 04:32:00;;;;;;;;;;;;;;;15.58;50.09;100599.81;4979412;27;100336;-68
2022/05/03 04:34:26;;;;;;;;;;;;;;;15.61;50.21;100601.94;4981281;27;117565;-68
2022/05/03 04:36:53;;;;;;;;;;;;;;;15.62;50.22;100601.63;4980376;27;98662;-68
2022/05/03 04:39:19;;;;;;;;;;;;;;;15.63;50.20;100603.22;4974875;27;128242;-68
2022/05/03 04:41:45;;;;;;;;;;;;;;;15.65;50.13;100609.22;4978134;27;98168;-70
2022/05/03 04:44:11;;;;;;;;;;;;;;;15.68;50.59;100614.06;4975829;27;118393;-68
2022/05/03 04:46:37;;;;;;;;;;;;;;;15.70;50.58;100617.28;4984246;27;99231;-69
2022/05/03 04:49:02;;;;;;;;;;;;;;;15.73;50.43;100617.81;4977948;27;98438;-68
2022/05/03 04:51:29;;;;;;;;;;;;;;;15.76;50.21;100617.19;4976944;27;126594;-68
2022/05/03 04:53:55;;;;;;;;;;;;;;;15.80;50.24;100612.75;4980185;27;98089;-68
2022/05/03 04:56:23;;;;;;;;;;;;;;;15.85;50.39;100612.69;4984752;27;98763;-69
2022/05/03 04:58:49;;;;;;;;;;;;;;;15.90;50.44;100618.84;4977605;27;98373;-68
2022/05/03 05:01:15;;;;;;;;;;;;;;;15.96;50.23;100625.00;4983923;27;98113;-68
2022/05/03 05:03:41;;;;;;;;;;;;;;;16.00;50.54;100625.22;4978605;27;114559;-68
2022/05/03 05:06:08;;;;;;;;;;;;;;;16.06;50.21;100629.44;4974664;27;107078;-68
2022/05/03 05:08:34;;;;;;;;;;;;;;;16.13;50.20;100636.09;4977458;27;98399;-68
2022/05/03 05:11:00;;;;;;;;;;;;;;;16.21;50.19;100626.44;4977423;27;126623;-68
2022/05/03 05:13:26;;;;;;;;;;;;;;;16.29;50.18;100624.94;4976625;27;117042;-69
2022/05/03 05:15:52;;;;;;;;;;;;;;;16.38;50.52;100626.63;4978677;27;104616;-68
2022/05/03 05:18:18;;;;;;;;;;;;;;;16.50;50.15;100628.84;4975644;27;128301;-68
2022/05/03 05:20:43;;;;;;;;;;;;;;;16.62;50.13;100620.19;4980284;27;98619;-67
2022/05/03 05:23:09;;;;;;;;;;;;;;;16.74;50.09;100620.53;4977603;27;117795;-68
2022/05/03 05:25:35;;;;;;;;;;;;;;;16.85;49.81;100616.44;4976695;27;127494;-67
2022/05/03 05:28:01;;;;;;;;;;;;;;;16.98;49.72;100609.38;4975214;27;128614;-67
2022/05/03 05:30:27;;;;;;;;;;;;;;;17.12;49.75;100620.22;4974001;27;127699;-67
2022/05/03 05:32:53;;;;;;;;;;;;;;;17.26;49.54;100633.81;4973375;27;118844;-67
2022/05/03 05:35:19;;;;;;;;;;;;;;;17.40;49.45;100631.81;4974147;27;125967;-67
2022/05/03 05:37:45;;;;;;;;;;;;;;;17.56;49.31;100629.53;4976217;27;98724;-69
2022/05/03 05:40:11;;;;;;;;;;;;;;;17.73;49.22;100634.31;4976280;27;128062;-68
2022/05/03 05:42:37;;;;;;;;;;;;;;;17.88;49.02;100632.03;4976079;27;116809;-68
2022/05/03 05:45:03;;;;;;;;;;;;;;;18.06;48.77;100641.09;4974708;27;98383;-68
2022/05/03 05:47:29;;;;;;;;;;;;;;;18.24;48.62;100639.28;4976755;27;123897;-68
2022/05/03 05:49:55;;;;;;;;;;;;;;;18.42;48.23;100642.06;4976156;27;127001;-68
2022/05/03 05:55:06;;;;;;;;;;;;;;;18.83;47.92;100648.00;4972700;27;98085;-68
2022/05/03 05:57:32;;;;;;;;;;;;;;;19.05;47.54;100638.88;4978805;27;121593;-69
2022/05/03 05:59:59;;;;;;;;;;;;;;;19.26;47.23;100646.47;4979015;27;126744;-68
2022/05/03 06:02:25;;;;;;;;;;;;;;;19.42;46.02;100644.84;4977258;27;97818;-68
2022/05/03 06:04:51;;;;;;;;;;;;;;;19.57;45.50;100647.09;4975695;27;123002;-68
2022/05/03 06:07:17;;;;;;;;;;;;;;;19.70;45.06;100655.47;4976350;27;98725;-68
2022/05/03 06:09:43;;;;;;;;;;;;;;;19.85;44.77;100655.75;4977311;27;111140;-67
2022/05/03 06:12:10;;;;;;;;;;;;;;;20.02;44.06;100652.16;4976049;27;116683;-69
2022/05/03 06:14:36;;;;;;;;;;;;;;;20.20;43.87;100655.66;4974561;27;125999;-69
2022/05/03 06:17:02;;;;;;;;;;;;;;;20.38;43.70;100661.88;4976923;27;97971;-69
2022/05/03 06:19:28;;;;;;;;;;;;;;;20.56;43.47;100659.91;4976026;27;128385;-68
2022/05/03 06:21:54;;;;;;;;;;;;;;;20.80;43.03;100654.59;4977034;27;97998;-68
2022/05/03 06:24:20;;;;;;;;;;;;;;;20.99;42.92;100658.84;4973580;27;128285;-68
2022/05/03 06:26:45;;;;;;;;;;;;;;;21.21;42.44;100668.66;4973948;27;127331;-68
2022/05/03 06:29:12;;;;;;;;;;;;;;;21.48;42.33;100670.88;4973507;27;127833;-68
2022/05/03 06:31:42;;;;;;;;;;;;;;;21.80;41.91;100674.00;4976746;27;117917;-68
2022/05/03 06:34:08;;;;;;;;;;;;;;;22.16;41.27;100678.78;4976380;27;98116;-69
2022/05/03 06:36:37;;;;;;;;;;;;;;;22.57;40.82;100677.03;4976759;27;98849;-68
2022/05/03 06:39:03;;;;;;;;;;;;;;;22.99;40.34;100676.78;4975744;27;97924;-68
2022/05/03 06:41:29;;;;;;;;;;;;;;;23.35;39.94;100683.38;4978321;27;98072;-68
2022/05/03 06:43:58;;;;;;;;;;;;;;;23.58;39.48;100680.88;4975587;27;99510;-68
2022/05/03 06:46:27;;;;;;;;;;;;;;;23.90;38.91;100679.84;4976261;27;98529;-68
2022/05/03 06:48:53;;;;;;;;;;;;;;;24.21;38.38;100681.06;4974264;27;126198;-68
2022/05/03 06:51:19;;;;;;;;;;;;;;;24.52;38.06;100676.69;4977986;27;97735;-68
2022/05/03 06:53:45;;;;;;;;;;;;;;;24.82;37.82;100677.81;4983411;27;126180;-68
2022/05/03 06:56:11;;;;;;;;;;;;;;;25.07;37.65;100680.34;4985587;27;107699;-68
2022/05/03 06:58:37;;;;;;;;;;;;;;;25.36;37.01;100679.03;4975266;27;118015;-68
2022/05/03 07:01:15;;;;;;;;;;;;;;;25.63;36.89;100688.28;4980335;27;117735;-69
2022/05/03 07:03:41;;;;;;;;;;;;;;;25.93;36.54;100685.69;4983720;27;98745;-68
2022/05/03 07:06:07;;;;;;;;;;;;;;;26.25;36.42;100689.03;4975459;27;128727;-68
2022/05/03 07:08:33;;;;;;;;;;;;;;;26.58;35.77;100690.41;4974071;27;127928;-68
2022/05/03 07:10:59;;;;;;;;;;;;;;;26.87;35.69;100691.63;4975821;27;100540;-68
2022/05/03 07:13:25;;;;;;;;;;;;;;;27.20;35.50;100690.97;4979211;27;127440;-68
2022/05/03 07:15:56;;;;;;;;;;;;;;;27.53;34.90;100683.84;4979868;27;105864;-68
2022/05/03 07:23:51;;;;;;;;;;;;;;;28.35;34.02;100691.06;4977071;27;98212;-68
2022/05/03 07:26:17;;;;;;;;;;;;;;;28.58;33.88;100696.44;4979553;27;98325;-68
2022/05/03 07:28:43;;;;;;;;;;;;;;;28.81;33.37;100698.19;4977013;27;103202;-69
2022/05/03 07:31:09;;;;;;;;;;;;;;;29.01;33.04;100695.97;4979572;27;107193;-69
2022/05/03 07:33:35;;;;;;;;;;;;;;;29.26;33.24;100693.31;4987282;27;99370;-68
2022/05/03 07:36:04;;;;;;;;;;;;;;;29.54;32.55;100695.41;4977997;27;128084;-68
2022/05/03 07:38:30;;;;;;;;;;;;;;;29.79;32.22;100698.28;4978137;27;111191;-68
2022/05/03 07:40:56;;;;;;;;;;;;;;;30.04;31.97;100698.34;4979161;27;97926;-68
2022/05/03 07:43:23;;;;;;;;;;;;;;;30.38;32.00;100698.81;4977251;27;127860;-68
2022/05/03 07:45:49;;;;;;;;;;;;;;;30.78;31.58;100696.84;4980182;27;98362;-68
2022/05/03 07:48:15;;;;;;;;;;;;;;;31.23;30.94;100697.91;4977912;27;126645;-68
2022/05/03 07:50:40;;;;;;;;;;;;;;;31.68;30.54;100695.38;4982185;27;116556;-68
2022/05/03 07:53:06;;;;;;;;;;;;;;;32.14;29.97;100696.28;4977919;27;127393;-67
2022/05/03 07:55:32;;;;;;;;;;;;;;;32.67;29.67;100700.66;4980968;27;126594;-68
2022/05/03 07:57:58;;;;;;;;;;;;;;;33.19;28.75;100697.75;4978307;27;127849;-67
2022/05/03 08:00:26;;;;;;;;;;;;;;;33.71;28.21;100703.88;4980902;27;98009;-68
2022/05/03 08:02:52;;;;;;;;;;;;;;;34.19;28.38;100702.00;4978735;27;99205;-68
2022/05/03 08:05:18;;;;;;;;;;;;;;;34.39;27.73;100704.91;4978430;27;127979;-67
2022/05/03 08:07:44;;;;;;;;;;;;;;;35.02;27.83;100705.03;4977936;27;126426;-66
2022/05/03 08:10:10;;;;;;;;;;;;;;;35.40;27.21;100699.81;4985593;27;97904;-68
2022/05/03 08:12:36;;;;;;;;;;;;;;;35.71;26.87;100696.00;4977446;27;99105;-66
2022/05/03 08:15:04;;;;;;;;;;;;;;;36.17;26.64;100699.78;4977339;27;125478;-66
2022/05/03 08:17:30;;;;;;;;;;;;;;;36.79;25.85;100692.19;4977656;27;98271;-67
2022/05/03 08:19:56;;;;;;;;;;;;;;;37.69;25.41;100701.69;4978656;27;98159;-68
2022/05/03 08:22:22;;;;;;;;;;;;;;;38.49;24.67;100701.56;4977339;27;98673;-67
2022/05/03 08:24:48;;;;;;;;;;;;;;;39.04;24.73;100705.66;4977690;27;98320;-68
2022/05/03 08:27:14;;;;;;;;;;;;;;;39.56;24.09;100703.34;4992313;27;99124;-68
2022/05/03 08:29:40;;;;;;;;;;;;;;;40.17;23.73;100698.91;4976612;27;118186;-68
2022/05/03 08:32:06;;;;;;;;;;;;;;;40.63;23.29;100707.47;4977244;27;127114;-67
2022/05/03 08:34:32;;;;;;;;;;;;;;;40.89;23.04;100710.00;4982517;27;98118;-68
2022/05/03 08:42:28;;;;;;;;;;;;;;;41.32;22.45;100689.06;4972983;27;98055;-68
2022/05/03 08:44:55;;;;;;;;;;;;;;;41.13;22.62;100690.38;4976477;27;98619;-68
2022/05/03 08:47:21;;;;;;;;;;;;;;;41.27;22.20;100694.56;4982265;27;99455;-64
2022/05/03 08:49:52;;;;;;;;;;;;;;;41.95;21.83;100695.00;4974424;27;118849;-64
2022/05/03 08:52:18;;;;;;;;;;;;;;;42.67;21.30;100694.25;4976702;27;98600;-64
2022/05/03 08:54:44;;;;;;;;;;;;;;;43.20;20.90;100699.91;4974497;27;128328;-64
2022/05/03 08:57:10;;;;;;;;;;;;;;;43.52;20.57;100691.72;4990429;27;127977;-65
2022/05/03 08:59:37;;;;;;;;;;;;;;;43.63;20.55;100689.06;4978331;27;98124;-66
2022/05/03 09:02:06;;;;;;;;;;;;;;;43.78;20.86;100686.97;4977370;27;98493;-64
2022/05/03 09:04:32;;;;;;;;;;;;;;;43.53;20.39;100684.75;4977031;27;98863;-65
2022/05/03 09:06:59;;;;;;;;;;;;;;;43.43;20.81;100680.44;4984742;27;125240;-64
2022/05/03 09:09:25;;;;;;;;;;;;;;;43.56;20.70;100683.78;4980434;27;99044;-65
2022/05/03 09:11:53;;;;;;;;;;;;;;;43.22;20.68;100676.75;4976988;27;99044;-64
2022/05/03 09:14:39;;;;;;;;;;;;;;;42.50;21.10;100674.06;4977099;27;98509;-65
2022/05/03 09:17:06;;;;;;;;;;;;;;;42.02;21.41;100669.19;4978169;27;98168;-66
2022/05/03 09:19:32;;;;;;;;;;;;;;;41.98;21.21;100665.75;4979782;27;98388;-66
2022/05/03 09:24:55;;;;;;;;;;;;;;;42.22;20.84;100656.50;4976568;27;98373;-65
2022/05/03 09:27:22;;;;;;;;;;;;;;;41.03;21.62;100666.19;4978320;27;98222;-65
2022/05/03 09:30:05;;;;;;;;;;;;;;;39.24;22.67;100665.09;4978665;27;98126;-64
2022/05/03 09:32:36;;;;;;;;;;;;;;;37.92;22.96;100661.22;4976722;27;99370;-64
2022/05/03 09:35:02;;;;;;;;;;;;;;;37.81;22.72;100661.56;4975965;27;98417;-64
2022/05/03 09:37:39;;;;;;;;;;;;;;;39.08;21.40;100673.75;4974958;27;98314;-67
2022/05/03 09:40:06;;;;;;;;;;;;;;;37.66;22.79;100661.22;4977618;27;99086;-65
2022/05/03 09:42:34;;;;;;;;;;;;;;;36.64;23.08;100654.53;4958756;27;98353;-65
2022/05/03 09:45:02;;;;;;;;;;;;;;;37.40;22.39;100662.41;4975009;27;98947;-65
2022/05/03 09:47:59;;;;;;;;;;;;;;;37.38;22.42;100651.63;4976839;27;98263;-65
2022/05/03 09:50:36;;;;;;;;;;;;;;;40.22;20.59;100672.13;4968989;27;98318;-65
2022/05/03 09:53:21;;;;;;;;;;;;;;;41.60;19.88;100677.69;4979336;27;103479;-65
2022/05/03 09:55:48;;;;;;;;;;;;;;;42.64;19.36;100662.78;4983807;27;98839;-65
2022/05/03 09:58:16;;;;;;;;;;;;;;;43.69;18.76;100660.75;4976180;27;98698;-66
2022/05/03 10:00:42;;;;;;;;;;;;;;;44.31;18.47;100668.91;4982412;27;97966;-66
2022/05/03 10:03:09;;;;;;;;;;;;;;;45.05;18.41;100665.63;4977567;27;99263;-65
2022/05/03 10:05:38;;;;;;;;;;;;;;;45.55;18.20;100655.94;4976152;27;125978;-65
2022/05/03 10:08:05;;;;;;;;;;;;;;;45.93;18.26;100656.72;4976752;27;98434;-66
2022/05/03 10:10:31;;;;;;;;;;;;;;;46.05;17.73;100649.00;4977273;27;97805;-65
2022/05/03 10:12:58;;;;;;;;;;;;;;;46.04;17.91;100636.84;4981760;27;99364;-65
2022/05/03 10:21:28;;;;;;;;;;;;;;;44.32;18.74;100635.59;4985819;27;98282;-66
2022/05/03 10:24:21;;;;;;;;;;;;;;;42.97;19.52;100625.03;4975956;27;98333;-65
2022/05/03 10:26:52;;;;;;;;;;;;;;;41.90;19.82;100625.72;4975101;27;113731;-65
2022/05/03 10:29:19;;;;;;;;;;;;;;;40.78;20.18;100622.13;4975976;27;98568;-65
2022/05/03 10:32:02;;;;;;;;;;;;;;;42.07;19.45;100620.41;4974385;27;113164;-66
2022/05/03 10:34:53;;;;;;;;;;;;;;;42.69;18.95;100623.75;4976287;27;99399;-65
2022/05/03 10:37:34;;;;;;;;;;;;;;;43.00;19.11;100623.28;4976529;27;98809;-65
2022/05/03 10:40:01;;;;;;;;;;;;;;;43.19;18.90;100630.31;4983492;27;98359;-66
2022/05/03 10:42:29;;;;;;;;;;;;;;;43.33;18.94;100621.00;4976196;27;117186;-64
2022/05/03 10:45:09;;;;;;;;;;;;;;;43.36;18.64;100616.41;4983579;27;122707;-65
2022/05/03 10:47:49;;;;;;;;;;;;;;;42.53;19.30;100613.66;4978660;27;100910;-65
2022/05/03 10:50:15;;;;;;;;;;;;;;;41.93;19.56;100604.94;4978204;27;97965;-65
2022/05/03 10:53:00;;;;;;;;;;;;;;;42.71;18.74;100613.47;4979282;27;98691;-65
2022/05/03 10:55:27;;;;;;;;;;;;;;;43.26;18.76;100603.63;4980129;27;98666;-65
2022/05/03 10:58:18;;;;;;;;;;;;;;;43.49;18.80;100616.91;4980397;27;109127;-65
2022/05/03 11:01:02;;;;;;;;;;;;;;;43.62;18.42;100602.38;4981446;27;98363;-66
2022/05/03 11:03:29;;;;;;;;;;;;;;;43.77;18.52;100599.50;4979721;27;97896;-65
2022/05/03 11:06:17;;;;;;;;;;;;;;;43.49;18.96;100594.22;4979270;27;98627;-64
2022/05/03 11:14:05;;;;;;;;;;;;;;;43.28;18.45;100596.19;4979476;27;98279;-67
2022/05/03 11:16:34;;;;;;;;;;;;;;;43.02;18.78;100592.38;4979943;27;98457;-67
2022/05/03 11:19:11;;;;;;;;;;;;;;;42.82;19.21;100588.19;4980014;27;98756;-67
2022/05/03 11:21:37;;;;;;;;;;;;;;;41.42;19.97;100586.03;4976624;27;120083;-67
2022/05/03 11:24:03;;;;;;;;;;;;;;;40.32;20.35;100576.94;4977870;27;115439;-67
2022/05/03 11:26:29;;;;;;;;;;;;;;;39.33;20.76;100577.00;4978821;27;122050;-65
2022/05/03 11:29:01;;;;;;;;;;;;;;;38.37;20.96;100570.91;4979766;27;98476;-66
2022/05/03 11:31:27;;;;;;;;;;;;;;;37.32;21.45;100569.09;4985360;27;108870;-65
2022/05/03 11:33:56;;;;;;;;;;;;;;;37.75;20.94;100570.56;4979551;27;98305;-66
2022/05/03 11:36:22;;;;;;;;;;;;;;;37.93;20.61;100573.63;4979625;27;98580;-65
2022/05/03 11:38:53;;;;;;;;;;;;;;;37.63;21.07;100574.97;4978262;27;98156;-67
2022/05/03 11:41:22;;;;;;;;;;;;;;;37.88;20.93;100571.34;4979380;27;122524;-67
2022/05/03 11:43:48;;;;;;;;;;;;;;;38.08;21.11;100579.50;4979068;27;97965;-66
2022/05/03 11:46:18;;;;;;;;;;;;;;;38.20;20.95;100561.03;4976047;27;99339;-67
2022/05/03 11:48:44;;;;;;;;;;;;;;;38.31;20.66;100565.03;4977789;27;115879;-65
2022/05/03 11:56:41;;;;;;;;;;;;;;;37.69;21.68;100563.94;4988350;27;98715;-66
2022/05/03 11:59:08;;;;;;;;;;;;;;;36.79;22.22;100558.25;4961478;27;99247;-66
2022/05/03 12:01:34;;;;;;;;;;;;;;;35.95;22.35;100550.88;4982473;27;120526;-66
2022/05/03 12:04:02;;;;;;;;;;;;;;;35.23;22.71;100558.16;4977149;27;116510;-65
2022/05/03 12:06:43;;;;;;;;;;;;;;;35.30;22.56;100551.63;4976824;27;101296;-66
2022/05/03 12:09:12;;;;;;;;;;;;;;;34.42;23.15;100553.00;4976652;27;100944;-65
2022/05/03 12:12:42;;;;;;;;;;;;;;;33.84;23.50;100553.22;4977871;27;98593;-65
2022/05/03 12:14:34;;;;;;;;;;;;;;;33.23;23.28;100556.09;4978230;27;97919;-65
2022/05/03 12:16:59;;;;;;;;;;;;;;;33.92;22.85;100571.44;4978509;27;98617;-65
2022/05/03 12:19:25;;;;;;;;;;;;;;;33.43;23.27;100553.41;4978364;27;99616;-66
2022/05/03 12:21:51;;;;;;;;;;;;;;;33.33;23.32;100560.75;4979714;27;128696;-66
2022/05/03 12:24:17;;;;;;;;;;;;;;;33.29;23.76;100560.03;4979552;27;98725;-66
2022/05/03 12:26:44;;;;;;;;;;;;;;;32.68;24.26;100557.97;4975471;27;127488;-66
2022/05/03 12:29:10;;;;;;;;;;;;;;;33.17;23.47;100549.41;4985578;27;99270;-65
2022/05/03 12:31:38;;;;;;;;;;;;;;;33.48;23.68;100552.97;4977214;27;125679;-66
2022/05/03 12:34:08;;;;;;;;;;;;;;;33.79;23.30;100561.28;4979615;27;98329;-65
2022/05/03 12:36:42;;;;;;;;;;;;;;;33.96;23.26;100557.41;4977806;27;99173;-66
2022/05/03 12:39:30;;;;;;;;;;;;;;;33.87;23.76;100549.53;4977488;27;98514;-65
2022/05/03 12:42:22;;;;;;;;;;;;;;;33.04;24.26;100546.38;4978351;27;98685;-65
2022/05/03 12:44:49;;;;;;;;;;;;;;;32.78;24.08;100544.28;4976098;27;117633;-66
2022/05/03 12:47:15;;;;;;;;;;;;;;;32.19;24.54;100539.75;4978788;27;98527;-65
2022/05/03 12:49:41;;;;;;;;;;;;;;;32.36;24.25;100529.63;4979375;27;98389;-65
2022/05/03 12:52:07;;;;;;;;;;;;;;;32.75;23.99;100532.00;4982262;27;127687;-66
2022/05/03 12:54:33;;;;;;;;;;;;;;;32.99;23.87;100535.69;4978327;27;106910;-66
2022/05/03 12:59:44;;;;;;;;;;;;;;;32.38;24.48;100541.94;4980811;27;98127;-65
2022/05/03 13:02:10;;;;;;;;;;;;;;;32.93;24.21;100542.94;4977370;27;110498;-66
2022/05/03 13:04:36;;;;;;;;;;;;;;;33.15;23.96;100529.50;4977915;27;97879;-66
2022/05/03 13:07:02;;;;;;;;;;;;;;;33.37;23.91;100530.00;4984600;27;129891;-66
2022/05/03 13:09:30;;;;;;;;;;;;;;;33.33;24.08;100529.25;4977339;27;99663;-65
2022/05/03 13:11:56;;;;;;;;;;;;;;;32.90;24.57;100532.59;4977053;27;98241;-66
2022/05/03 13:14:22;;;;;;;;;;;;;;;32.99;24.13;100528.13;4976886;27;98233;-66
2022/05/03 13:16:51;;;;;;;;;;;;;;;33.02;24.54;100522.91;4979201;27;104395;-65
2022/05/03 13:19:17;;;;;;;;;;;;;;;32.27;24.87;100516.19;4977652;27;98577;-65
2022/05/03 13:21:43;;;;;;;;;;;;;;;31.92;25.14;100514.53;4979950;27;98179;-65
2022/05/03 13:24:09;;;;;;;;;;;;;;;31.46;25.48;100519.25;4977540;27;98080;-66
2022/05/03 13:26:35;;;;;;;;;;;;;;;31.05;25.70;100519.09;4977954;27;98951;-65
2022/05/03 13:29:03;;;;;;;;;;;;;;;30.89;25.51;100522.34;4976852;27;98870;-65
2022/05/03 13:31:29;;;;;;;;;;;;;;;30.63;25.30;100506.13;4977005;27;102194;-66